sensor_id;sensor_type;location;lat;lon;timestamp;pressure;altitude;pressure_sealevel;temperature;humidity
48968;BME280;46511;53.148;8.204;2023-08-17T00:00:06;102184.75;;;18.76;100.00
48968;BME280;46511;53.148;8.204;2023-08-17T00:02:44;102187.56;;;18.74;100.00
48968;BME280;46511;53.148;8.204;2023-08-17T00:05:11;102180.50;;;18.86;100.00
48968;BME280;46511;53.148;8.204;2023-08-17T00:07:42;102189.84;;;18.68;100.00
48968;BME280;46511;53.148;8.204;2023-08-17T00:10:13;102189.09;;;18.91;100.00
48968;BME280;46511;53.148;8.204;2023-08-17T00:12:45;102188.44;;;18.75;100.00
48968;BME280;46511;53.148;8.204;2023-08-17T00:15:16;102195.59;;;18.62;100.00
48968;BME280;46511;53.148;8.204;2023-08-17T00:17:47;102188.00;;;18.81;100.00
48968;BME280;46511;53.148;8.204;2023-08-17T00:20:15;102190.81;;;18.92;100.00
48968;BME280;46511;53.148;8.204;2023-08-17T00:22:47;102203.31;;;18.93;100.00
48968;BME280;46511;53.148;8.204;2023-08-17T00:25:18;102193.41;;;18.81;100.00
48968;BME280;46511;53.148;8.204;2023-08-17T00:27:49;102194.03;;;18.72;100.00
48968;BME280;46511;53.148;8.204;2023-08-17T00:30:21;102194.03;;;18.72;100.00
48968;BME280;46511;53.148;8.204;2023-08-17T00:32:47;102189.28;;;18.75;100.00
48968;BME280;46511;53.148;8.204;2023-08-17T00:35:14;102183.47;;;18.69;100.00
48968;BME280;46511;53.148;8.204;2023-08-17T00:37:45;102193.28;;;18.70;100.00
48968;BME280;46511;53.148;8.204;2023-08-17T00:40:16;102201.88;;;18.35;100.00
48968;BME280;46511;53.148;8.204;2023-08-17T00:42:48;102191.03;;;18.89;100.00
48968;BME280;46511;53.148;8.204;2023-08-17T00:45:21;102193.94;;;18.46;100.00
48968;BME280;46511;53.148;8.204;2023-08-17T00:47:55;102188.28;;;18.64;100.00
48968;BME280;46511;53.148;8.204;2023-08-17T00:50:23;102178.09;;;18.81;100.00
48968;BME280;46511;53.148;8.204;2023-08-17T00:52:51;102177.66;;;18.75;100.00
48968;BME280;46511;53.148;8.204;2023-08-17T00:55:24;102169.28;;;18.79;100.00
48968;BME280;46511;53.148;8.204;2023-08-17T00:57:56;102179.81;;;18.70;100.00
48968;BME280;46511;53.148;8.204;2023-08-17T01:00:22;102172.94;;;18.91;100.00
48968;BME280;46511;53.148;8.204;2023-08-17T01:02:52;102162.59;;;18.85;100.00
48968;BME280;46511;53.148;8.204;2023-08-17T01:05:19;102162.81;;;18.82;100.00
48968;BME280;46511;53.148;8.204;2023-08-17T01:07:51;102161.19;;;18.67;100.00
48968;BME280;46511;53.148;8.204;2023-08-17T01:10:23;102164.53;;;18.83;100.00
48968;BME280;46511;53.148;8.204;2023-08-17T01:13:00;102166.13;;;18.73;100.00
48968;BME280;46511;53.148;8.204;2023-08-17T01:15:40;102159.91;;;18.85;100.00
48968;BME280;46511;53.148;8.204;2023-08-17T01:20:53;102159.81;;;18.87;100.00
48968;BME280;46511;53.148;8.204;2023-08-17T01:23:20;102158.06;;;18.73;100.00
48968;BME280;46511;53.148;8.204;2023-08-17T01:25:47;102158.94;;;18.86;100.00
48968;BME280;46511;53.148;8.204;2023-08-17T01:28:13;102152.59;;;18.87;100.00
48968;BME280;46511;53.148;8.204;2023-08-17T01:33:38;102148.69;;;18.66;100.00
48968;BME280;46511;53.148;8.204;2023-08-17T01:36:19;102148.94;;;18.88;100.00
48968;BME280;46511;53.148;8.204;2023-08-17T01:38:53;102151.06;;;18.83;100.00
48968;BME280;46511;53.148;8.204;2023-08-17T01:41:23;102147.97;;;18.76;100.00
48968;BME280;46511;53.148;8.204;2023-08-17T01:43:56;102153.78;;;18.96;100.00
48968;BME280;46511;53.148;8.204;2023-08-17T01:46:25;102150.31;;;18.94;100.00
48968;BME280;46511;53.148;8.204;2023-08-17T01:49:01;102149.47;;;18.80;100.00
48968;BME280;46511;53.148;8.204;2023-08-17T01:51:32;102143.28;;;18.66;100.00
48968;BME280;46511;53.148;8.204;2023-08-17T01:53:59;102142.69;;;18.88;100.00
48968;BME280;46511;53.148;8.204;2023-08-17T01:56:25;102157.88;;;18.89;100.00
48968;BME280;46511;53.148;8.204;2023-08-17T01:58:57;102147.50;;;18.82;100.00
48968;BME280;46511;53.148;8.204;2023-08-17T02:01:28;102155.69;;;18.68;100.00
48968;BME280;46511;53.148;8.204;2023-08-17T02:03:54;102152.69;;;18.73;100.00
48968;BME280;46511;53.148;8.204;2023-08-17T02:06:26;102154.19;;;19.02;100.00
48968;BME280;46511;53.148;8.204;2023-08-17T02:08:52;102145.78;;;18.94;100.00
48968;BME280;46511;53.148;8.204;2023-08-17T02:11:23;102158.72;;;19.02;100.00
48968;BME280;46511;53.148;8.204;2023-08-17T02:13:55;102153.34;;;18.89;100.00
48968;BME280;46511;53.148;8.204;2023-08-17T02:16:26;102160.22;;;18.93;100.00
48968;BME280;46511;53.148;8.204;2023-08-17T02:18:57;102156.94;;;18.63;100.00
48968;BME280;46511;53.148;8.204;2023-08-17T02:21:29;102157.19;;;18.72;100.00
48968;BME280;46511;53.148;8.204;2023-08-17T02:23:55;102158.94;;;18.86;100.00
48968;BME280;46511;53.148;8.204;2023-08-17T02:26:26;102151.41;;;18.91;100.00
48968;BME280;46511;53.148;8.204;2023-08-17T02:28:53;102148.25;;;19.23;100.00
48968;BME280;46511;53.148;8.204;2023-08-17T02:31:24;102151.63;;;18.88;100.00
48968;BME280;46511;53.148;8.204;2023-08-17T02:33:55;102144.06;;;18.68;100.00
48968;BME280;46511;53.148;8.204;2023-08-17T02:36:31;102151.38;;;18.66;100.00
48968;BME280;46511;53.148;8.204;2023-08-17T02:38:58;102151.59;;;18.75;100.00
48968;BME280;46511;53.148;8.204;2023-08-17T02:41:29;102146.19;;;18.63;100.00
48968;BME280;46511;53.148;8.204;2023-08-17T02:44:03;102146.97;;;18.38;100.00
48968;BME280;46511;53.148;8.204;2023-08-17T02:46:29;102144.69;;;18.59;100.00
48968;BME280;46511;53.148;8.204;2023-08-17T02:49:00;102139.69;;;18.52;100.00
48968;BME280;46511;53.148;8.204;2023-08-17T02:51:27;102138.72;;;18.53;100.00
48968;BME280;46511;53.148;8.204;2023-08-17T02:53:53;102131.75;;;18.64;100.00
48968;BME280;46511;53.148;8.204;2023-08-17T02:56:20;102137.34;;;18.61;100.00
48968;BME280;46511;53.148;8.204;2023-08-17T02:58:46;102126.19;;;18.92;100.00
48968;BME280;46511;53.148;8.204;2023-08-17T03:01:17;102129.00;;;18.91;100.00
48968;BME280;46511;53.148;8.204;2023-08-17T03:03:44;102132.53;;;18.66;100.00
48968;BME280;46511;53.148;8.204;2023-08-17T03:06:15;102132.28;;;18.56;100.00
48968;BME280;46511;53.148;8.204;2023-08-17T03:08:42;102127.94;;;18.68;100.00
48968;BME280;46511;53.148;8.204;2023-08-17T03:11:14;102129.97;;;18.77;100.00
48968;BME280;46511;53.148;8.204;2023-08-17T03:13:45;102131.13;;;18.86;100.00
48968;BME280;46511;53.148;8.204;2023-08-17T03:16:18;102128.53;;;18.59;100.00
48968;BME280;46511;53.148;8.204;2023-08-17T03:18:50;102133.53;;;18.77;100.00
48968;BME280;46511;53.148;8.204;2023-08-17T03:21:16;102129.97;;;18.77;100.00
48968;BME280;46511;53.148;8.204;2023-08-17T03:23:44;102127.69;;;18.71;100.00
48968;BME280;46511;53.148;8.204;2023-08-17T03:26:11;102108.59;;;18.48;100.00
48968;BME280;46511;53.148;8.204;2023-08-17T03:28:37;102125.56;;;18.36;100.00
48968;BME280;46511;53.148;8.204;2023-08-17T03:31:09;102126.13;;;18.41;100.00
48968;BME280;46511;53.148;8.204;2023-08-17T03:33:40;102122.00;;;18.23;100.00
48968;BME280;46511;53.148;8.204;2023-08-17T03:36:11;102124.97;;;18.58;100.00
48968;BME280;46511;53.148;8.204;2023-08-17T03:38:43;102114.78;;;18.89;100.00
48968;BME280;46511;53.148;8.204;2023-08-17T03:41:14;102122.31;;;18.71;100.00
48968;BME280;46511;53.148;8.204;2023-08-17T03:43:41;102123.78;;;18.62;100.00
48968;BME280;46511;53.148;8.204;2023-08-17T03:46:12;102133.31;;;18.80;100.00
48968;BME280;46511;53.148;8.204;2023-08-17T03:48:38;102126.22;;;18.67;100.00
48968;BME280;46511;53.148;8.204;2023-08-17T03:51:10;102127.06;;;18.80;100.00
48968;BME280;46511;53.148;8.204;2023-08-17T03:53:41;102121.13;;;18.75;100.00
48968;BME280;46511;53.148;8.204;2023-08-17T03:56:07;102124.03;;;18.72;100.00
48968;BME280;46511;53.148;8.204;2023-08-17T03:58:34;102113.38;;;18.83;100.00
48968;BME280;46511;53.148;8.204;2023-08-17T04:01:05;102121.19;;;18.61;100.00
48968;BME280;46511;53.148;8.204;2023-08-17T04:03:37;102117.53;;;18.49;100.00
48968;BME280;46511;53.148;8.204;2023-08-17T04:06:09;102110.97;;;18.40;100.00
48968;BME280;46511;53.148;8.204;2023-08-17T04:08:36;102118.41;;;18.49;100.00
48968;BME280;46511;53.148;8.204;2023-08-17T04:11:08;102129.22;;;17.95;100.00
48968;BME280;46511;53.148;8.204;2023-08-17T04:13:40;102115.53;;;18.25;100.00
48968;BME280;46511;53.148;8.204;2023-08-17T04:16:07;102108.47;;;18.37;100.00
48968;BME280;46511;53.148;8.204;2023-08-17T04:18:33;102112.84;;;18.25;100.00
48968;BME280;46511;53.148;8.204;2023-08-17T04:21:00;102112.34;;;18.46;100.00
48968;BME280;46511;53.148;8.204;2023-08-17T04:23:31;102124.97;;;18.06;100.00
48968;BME280;46511;53.148;8.204;2023-08-17T04:25:57;102133.28;;;17.88;100.00
48968;BME280;46511;53.148;8.204;2023-08-17T04:28:24;102131.56;;;18.27;100.00
48968;BME280;46511;53.148;8.204;2023-08-17T04:30:50;102127.75;;;18.04;100.00
48968;BME280;46511;53.148;8.204;2023-08-17T04:33:17;102123.31;;;18.30;100.00
48968;BME280;46511;53.148;8.204;2023-08-17T04:35:46;102121.28;;;18.46;100.00
48968;BME280;46511;53.148;8.204;2023-08-17T04:38:14;102121.50;;;18.43;100.00
48968;BME280;46511;53.148;8.204;2023-08-17T04:40:41;102127.41;;;18.36;100.00
48968;BME280;46511;53.148;8.204;2023-08-17T04:43:09;102120.19;;;18.36;100.00
48968;BME280;46511;53.148;8.204;2023-08-17T04:45:37;102117.25;;;18.66;100.00
48968;BME280;46511;53.148;8.204;2023-08-17T04:48:04;102114.06;;;18.34;100.00
48968;BME280;46511;53.148;8.204;2023-08-17T04:50:31;102117.50;;;18.36;100.00
48968;BME280;46511;53.148;8.204;2023-08-17T04:53:03;102126.53;;;18.35;100.00
48968;BME280;46511;53.148;8.204;2023-08-17T04:55:29;102128.53;;;18.59;100.00
48968;BME280;46511;53.148;8.204;2023-08-17T04:57:57;102124.75;;;18.48;100.00
48968;BME280;46511;53.148;8.204;2023-08-17T05:00:24;102128.38;;;18.35;100.00
48968;BME280;46511;53.148;8.204;2023-08-17T05:02:56;102126.13;;;18.41;100.00
48968;BME280;46511;53.148;8.204;2023-08-17T05:05:28;102126.75;;;18.32;100.00
48968;BME280;46511;53.148;8.204;2023-08-17T05:07:54;102117.75;;;18.59;100.00
48968;BME280;46511;53.148;8.204;2023-08-17T05:10:26;102124.34;;;18.15;100.00
48968;BME280;46511;53.148;8.204;2023-08-17T05:12:52;102133.63;;;18.36;100.00
48968;BME280;46511;53.148;8.204;2023-08-17T05:15:19;102125.38;;;18.39;100.00
48968;BME280;46511;53.148;8.204;2023-08-17T05:17:45;102127.84;;;18.42;100.00
48968;BME280;46511;53.148;8.204;2023-08-17T05:20:12;102132.13;;;18.32;100.00
48968;BME280;46511;53.148;8.204;2023-08-17T05:22:39;102124.53;;;18.51;100.00
48968;BME280;46511;53.148;8.204;2023-08-17T05:25:05;102132.19;;;18.58;100.00
48968;BME280;46511;53.148;8.204;2023-08-17T05:27:32;102126.00;;;18.30;100.00
48968;BME280;46511;53.148;8.204;2023-08-17T05:30:03;102127.69;;;18.71;100.00
48968;BME280;46511;53.148;8.204;2023-08-17T05:32:35;102129.34;;;18.86;100.00
48968;BME280;46511;53.148;8.204;2023-08-17T05:35:06;102126.59;;;18.61;100.00
48968;BME280;46511;53.148;8.204;2023-08-17T05:37:38;102114.75;;;18.50;100.00
48968;BME280;46511;53.148;8.204;2023-08-17T05:40:10;102119.66;;;18.31;100.00
48968;BME280;46511;53.148;8.204;2023-08-17T05:42:37;102117.16;;;18.68;100.00
48968;BME280;46511;53.148;8.204;2023-08-17T05:45:08;102120.53;;;18.32;100.00
48968;BME280;46511;53.148;8.204;2023-08-17T05:47:40;102121.72;;;18.53;100.00
48968;BME280;46511;53.148;8.204;2023-08-17T05:50:06;102131.38;;;18.70;100.00
48968;BME280;46511;53.148;8.204;2023-08-17T05:52:38;102128.13;;;18.65;100.00
48968;BME280;46511;53.148;8.204;2023-08-17T05:55:11;102133.31;;;18.80;100.00
48968;BME280;46511;53.148;8.204;2023-08-17T05:57:37;102131.13;;;18.73;100.00
48968;BME280;46511;53.148;8.204;2023-08-17T06:00:09;102127.72;;;18.96;100.00
48968;BME280;46511;53.148;8.204;2023-08-17T06:02:43;102132.84;;;18.61;100.00
48968;BME280;46511;53.148;8.204;2023-08-17T06:05:14;102139.69;;;18.52;100.00
48968;BME280;46511;53.148;8.204;2023-08-17T06:07:46;102133.34;;;18.53;100.00
48968;BME280;46511;53.148;8.204;2023-08-17T06:10:17;102133.09;;;18.31;100.00
48968;BME280;46511;53.148;8.204;2023-08-17T06:12:49;102148.09;;;18.48;100.00
48968;BME280;46511;53.148;8.204;2023-08-17T06:15:15;102143.44;;;18.77;100.00
48968;BME280;46511;53.148;8.204;2023-08-17T06:17:46;102138.38;;;18.98;100.00
48968;BME280;46511;53.148;8.204;2023-08-17T06:20:20;102135.88;;;19.07;100.00
48968;BME280;46511;53.148;8.204;2023-08-17T06:22:52;102139.78;;;18.78;100.00
48968;BME280;46511;53.148;8.204;2023-08-17T06:25:24;102136.75;;;19.08;100.00
48968;BME280;46511;53.148;8.204;2023-08-17T06:27:51;102143.00;;;18.83;100.00
48968;BME280;46511;53.148;8.204;2023-08-17T06:30:23;102137.59;;;19.08;100.00
48968;BME280;46511;53.148;8.204;2023-08-17T06:32:54;102138.00;;;19.28;100.00
48968;BME280;46511;53.148;8.204;2023-08-17T06:35:21;102140.78;;;19.39;100.00
48968;BME280;46511;53.148;8.204;2023-08-17T06:37:47;102136.75;;;19.08;100.00
48968;BME280;46511;53.148;8.204;2023-08-17T06:40:19;102142.13;;;19.08;100.00
48968;BME280;46511;53.148;8.204;2023-08-17T06:42:50;102140.41;;;19.07;100.00
48968;BME280;46511;53.148;8.204;2023-08-17T06:45:23;102152.69;;;18.73;100.00
48968;BME280;46511;53.148;8.204;2023-08-17T06:47:54;102161.53;;;19.00;100.00
48968;BME280;46511;53.148;8.204;2023-08-17T06:50:25;102156.75;;;19.29;100.00
48968;BME280;46511;53.148;8.204;2023-08-17T06:52:57;102155.00;;;19.41;100.00
48968;BME280;46511;53.148;8.204;2023-08-17T06:55:29;102161.06;;;19.32;100.00
48968;BME280;46511;53.148;8.204;2023-08-17T06:58:00;102169.69;;;19.11;100.00
48968;BME280;46511;53.148;8.204;2023-08-17T07:00:31;102167.31;;;19.45;100.00
48968;BME280;46511;53.148;8.204;2023-08-17T07:03:03;102169.69;;;19.11;100.00
48968;BME280;46511;53.148;8.204;2023-08-17T07:05:35;102159.38;;;19.18;100.00
48968;BME280;46511;53.148;8.204;2023-08-17T07:08:06;102165.63;;;19.19;100.00
48968;BME280;46511;53.148;8.204;2023-08-17T07:10:33;102161.38;;;19.53;100.00
48968;BME280;46511;53.148;8.204;2023-08-17T07:13:04;102169.25;;;19.43;100.00
48968;BME280;46511;53.148;8.204;2023-08-17T07:15:35;102169.34;;;19.54;100.00
48968;BME280;46511;53.148;8.204;2023-08-17T07:18:07;102165.34;;;19.73;100.00
48968;BME280;46511;53.148;8.204;2023-08-17T07:20:34;102164.88;;;19.79;100.00
48968;BME280;46511;53.148;8.204;2023-08-17T07:23:01;102165.63;;;20.29;100.00
48968;BME280;46511;53.148;8.204;2023-08-17T07:25:27;102161.03;;;19.94;100.00
48968;BME280;46511;53.148;8.204;2023-08-17T07:27:53;102160.69;;;19.75;100.00
48968;BME280;46511;53.148;8.204;2023-08-17T07:30:25;102172.94;;;19.17;100.00
48968;BME280;46511;53.148;8.204;2023-08-17T07:32:51;102169.53;;;19.51;100.00
48968;BME280;46511;53.148;8.204;2023-08-17T07:35:23;102168.59;;;19.52;100.00
48968;BME280;46511;53.148;8.204;2023-08-17T07:37:54;102168.06;;;19.47;100.00
48968;BME280;46511;53.148;8.204;2023-08-17T07:40:21;102168.28;;;19.44;100.00
48968;BME280;46511;53.148;8.204;2023-08-17T07:42:53;102177.63;;;19.51;100.00
48968;BME280;46511;53.148;8.204;2023-08-17T07:45:24;102183.69;;;19.42;100.00
48968;BME280;46511;53.148;8.204;2023-08-17T07:47:50;102174.00;;;19.27;100.00
48968;BME280;46511;53.148;8.204;2023-08-17T07:50:17;102185.53;;;19.03;100.00
48968;BME280;46511;53.148;8.204;2023-08-17T07:52:44;102187.59;;;18.87;100.00
48968;BME280;46511;53.148;8.204;2023-08-17T07:55:13;102169.09;;;18.95;100.00
48968;BME280;46511;53.148;8.204;2023-08-17T08:01:03;102174.34;;;18.44;100.00
48968;BME280;46511;53.148;8.204;2023-08-17T08:03:35;102180.41;;;18.61;100.00
48968;BME280;46511;53.148;8.204;2023-08-17T08:06:06;102182.53;;;18.55;100.00
48968;BME280;46511;53.148;8.204;2023-08-17T08:08:32;102178.31;;;18.78;100.00
48968;BME280;46511;53.148;8.204;2023-08-17T08:11:04;102174.66;;;18.79;100.00
48968;BME280;46511;53.148;8.204;2023-08-17T08:13:35;102168.09;;;18.71;100.00
48968;BME280;46511;53.148;8.204;2023-08-17T08:16:06;102158.50;;;18.92;100.00
48968;BME280;46511;53.148;8.204;2023-08-17T08:18:39;102170.56;;;19.37;100.00
48968;BME280;46511;53.148;8.204;2023-08-17T08:21:10;102163.63;;;19.46;100.00
48968;BME280;46511;53.148;8.204;2023-08-17T08:23:44;102171.41;;;19.38;100.00
48968;BME280;46511;53.148;8.204;2023-08-17T08:26:15;102178.94;;;19.58;100.00
48968;BME280;46511;53.148;8.204;2023-08-17T08:28:46;102173.34;;;19.36;100.00
48968;BME280;46511;53.148;8.204;2023-08-17T08:31:18;102175.00;;;19.26;100.00
48968;BME280;46511;53.148;8.204;2023-08-17T08:33:49;102174.19;;;19.49;100.00
48968;BME280;46511;53.148;8.204;2023-08-17T08:36:20;102164.66;;;19.82;100.00
48968;BME280;46511;53.148;8.204;2023-08-17T08:38:51;102176.44;;;20.05;100.00
48968;BME280;46511;53.148;8.204;2023-08-17T08:41:23;102161.28;;;19.91;100.00
48968;BME280;46511;53.148;8.204;2023-08-17T08:43:57;102160.84;;;20.56;100.00
48968;BME280;46511;53.148;8.204;2023-08-17T08:46:29;102151.09;;;20.77;100.00
48968;BME280;46511;53.148;8.204;2023-08-17T08:49:02;102147.41;;;20.90;100.00
48968;BME280;46511;53.148;8.204;2023-08-17T08:51:36;102152.56;;;20.93;100.00
48968;BME280;46511;53.148;8.204;2023-08-17T08:54:13;102150.34;;;20.75;100.00
48968;BME280;46511;53.148;8.204;2023-08-17T08:56:45;102154.06;;;20.97;100.00
48968;BME280;46511;53.148;8.204;2023-08-17T08:59:18;102150.00;;;20.91;100.00
48968;BME280;46511;53.148;8.204;2023-08-17T09:01:51;102142.56;;;20.48;100.00
48968;BME280;46511;53.148;8.204;2023-08-17T09:04:23;102147.34;;;21.14;100.00
48968;BME280;46511;53.148;8.204;2023-08-17T09:06:55;102151.81;;;20.79;100.00
48968;BME280;46511;53.148;8.204;2023-08-17T09:09:27;102147.72;;;21.31;100.00
48968;BME280;46511;53.148;8.204;2023-08-17T09:11:58;102148.06;;;22.15;100.00
48968;BME280;46511;53.148;8.204;2023-08-17T09:14:30;102141.94;;;22.34;100.00
48968;BME280;46511;53.148;8.204;2023-08-17T09:17:01;102143.84;;;22.22;100.00
48968;BME280;46511;53.148;8.204;2023-08-17T09:19:33;102134.22;;;22.71;100.00
48968;BME280;46511;53.148;8.204;2023-08-17T09:22:04;102134.38;;;22.69;100.00
48968;BME280;46511;53.148;8.204;2023-08-17T09:24:34;102131.00;;;22.98;100.00
48968;BME280;46511;53.148;8.204;2023-08-17T09:27:07;102132.03;;;23.06;100.00
48968;BME280;46511;53.148;8.204;2023-08-17T09:29:43;102151.00;;;21.57;100.00
48968;BME280;46511;53.148;8.204;2023-08-17T09:32:16;102147.44;;;21.57;100.00
48968;BME280;46511;53.148;8.204;2023-08-17T09:34:48;102146.22;;;21.61;100.00
48968;BME280;46511;53.148;8.204;2023-08-17T09:37:20;102156.19;;;22.04;100.00
48968;BME280;46511;53.148;8.204;2023-08-17T09:39:51;102151.13;;;22.42;100.00
48968;BME280;46511;53.148;8.204;2023-08-17T09:42:22;102151.63;;;22.47;100.00
48968;BME280;46511;53.148;8.204;2023-08-17T09:44:55;102153.06;;;21.76;100.00
48968;BME280;46511;53.148;8.204;2023-08-17T09:47:23;102148.38;;;21.89;100.00
48968;BME280;46511;53.148;8.204;2023-08-17T09:49:55;102145.34;;;22.15;100.00
48968;BME280;46511;53.148;8.204;2023-08-17T09:52:26;102143.72;;;22.44;100.00
48968;BME280;46511;53.148;8.204;2023-08-17T09:54:57;102124.34;;;22.39;100.00
48968;BME280;46511;53.148;8.204;2023-08-17T09:57:29;102128.63;;;22.63;100.00
48968;BME280;46511;53.148;8.204;2023-08-17T10:00:01;102125.38;;;22.27;100.00
48968;BME280;46511;53.148;8.204;2023-08-17T10:02:27;102130.31;;;21.79;100.00
48968;BME280;46511;53.148;8.204;2023-08-17T10:05:00;102132.25;;;21.99;100.00
48968;BME280;46511;53.148;8.204;2023-08-17T10:07:34;102129.91;;;21.94;100.00
48968;BME280;46511;53.148;8.204;2023-08-17T10:10:09;102134.13;;;21.76;100.00
48968;BME280;46511;53.148;8.204;2023-08-17T10:12:44;102129.28;;;22.55;100.00
48968;BME280;46511;53.148;8.204;2023-08-17T10:15:19;102125.97;;;22.51;100.00
48968;BME280;46511;53.148;8.204;2023-08-17T10:17:55;102133.88;;;21.90;100.00
48968;BME280;46511;53.148;8.204;2023-08-17T10:20:29;102129.03;;;22.58;100.00
48968;BME280;46511;53.148;8.204;2023-08-17T10:23:01;102120.84;;;22.48;100.00
48968;BME280;46511;53.148;8.204;2023-08-17T10:25:34;102120.81;;;22.69;100.00
48968;BME280;46511;53.148;8.204;2023-08-17T10:28:07;102125.09;;;22.72;100.00
48968;BME280;46511;53.148;8.204;2023-08-17T10:30:36;102116.69;;;22.86;100.00
48968;BME280;46511;53.148;8.204;2023-08-17T10:33:08;102105.72;;;22.67;100.00
48968;BME280;46511;53.148;8.204;2023-08-17T10:35:40;102106.50;;;22.58;100.00
48968;BME280;46511;53.148;8.204;2023-08-17T10:38:13;102106.44;;;22.69;100.00
48968;BME280;46511;53.148;8.204;2023-08-17T10:40:47;102118.56;;;23.26;100.00
48968;BME280;46511;53.148;8.204;2023-08-17T10:43:55;102107.41;;;22.68;100.00
48968;BME280;46511;53.148;8.204;2023-08-17T10:46:36;102112.72;;;23.30;100.00
48968;BME280;46511;53.148;8.204;2023-08-17T10:49:26;102105.69;;;23.18;100.00
48968;BME280;46511;53.148;8.204;2023-08-17T10:52:00;102107.81;;;23.55;100.00
48968;BME280;46511;53.148;8.204;2023-08-17T10:54:41;102106.94;;;22.63;100.00
48968;BME280;46511;53.148;8.204;2023-08-17T10:57:56;102108.44;;;23.28;100.00
48968;BME280;46511;53.148;8.204;2023-08-17T11:02:32;102108.34;;;24.08;100.00
48968;BME280;46511;53.148;8.204;2023-08-17T11:05:03;102107.19;;;24.20;100.00
48968;BME280;46511;53.148;8.204;2023-08-17T11:07:42;102097.03;;;23.93;100.00
48968;BME280;46511;53.148;8.204;2023-08-17T11:12:44;102090.00;;;23.62;100.00
48968;BME280;46511;53.148;8.204;2023-08-17T11:15:15;102092.03;;;24.47;100.00
48968;BME280;46511;53.148;8.204;2023-08-17T11:17:42;102093.31;;;23.94;100.00
48968;BME280;46511;53.148;8.204;2023-08-17T11:20:08;102085.44;;;25.06;100.00
48968;BME280;46511;53.148;8.204;2023-08-17T11:22:53;102089.19;;;25.05;100.00
48968;BME280;46511;53.148;8.204;2023-08-17T11:25:25;102090.19;;;24.94;100.00
48968;BME280;46511;53.148;8.204;2023-08-17T11:27:53;102084.75;;;25.31;100.00
48968;BME280;46511;53.148;8.204;2023-08-17T11:30:20;102072.56;;;26.60;100.00
48968;BME280;46511;53.148;8.204;2023-08-17T11:32:53;102069.31;;;27.75;100.00
48968;BME280;46511;53.148;8.204;2023-08-17T11:35:26;102063.44;;;30.17;94.94
48968;BME280;46511;53.148;8.204;2023-08-17T11:37:52;102055.94;;;30.33;94.36
48968;BME280;46511;53.148;8.204;2023-08-17T11:40:24;102056.31;;;31.70;82.23
48968;BME280;46511;53.148;8.204;2023-08-17T11:42:57;102052.63;;;34.18;60.74
48968;BME280;46511;53.148;8.204;2023-08-17T11:45:24;102058.44;;;32.66;66.22
48968;BME280;46511;53.148;8.204;2023-08-17T11:47:52;102054.50;;;33.10;64.13
48968;BME280;46511;53.148;8.204;2023-08-17T11:50:18;102056.84;;;31.59;69.55
48968;BME280;46511;53.148;8.204;2023-08-17T11:52:50;102068.38;;;27.42;100.00
48968;BME280;46511;53.148;8.204;2023-08-17T11:55:21;102048.00;;;30.53;91.62
48968;BME280;46511;53.148;8.204;2023-08-17T11:57:53;102047.91;;;31.06;79.77
48968;BME280;46511;53.148;8.204;2023-08-17T12:00:20;102054.00;;;30.72;89.47
48968;BME280;46511;53.148;8.204;2023-08-17T12:02:52;102054.41;;;28.84;89.74
48968;BME280;46511;53.148;8.204;2023-08-17T12:05:24;102061.56;;;26.44;100.00
48968;BME280;46511;53.148;8.204;2023-08-17T12:07:53;102060.91;;;25.43;100.00
48968;BME280;46511;53.148;8.204;2023-08-17T12:10:27;102066.00;;;24.91;100.00
48968;BME280;46511;53.148;8.204;2023-08-17T12:12:59;102060.44;;;25.02;100.00
48968;BME280;46511;53.148;8.204;2023-08-17T12:15:31;102059.47;;;25.21;100.00
48968;BME280;46511;53.148;8.204;2023-08-17T12:18:06;102053.31;;;26.18;100.00
48968;BME280;46511;53.148;8.204;2023-08-17T12:20:32;102054.94;;;26.46;100.00
48968;BME280;46511;53.148;8.204;2023-08-17T12:23:07;102053.28;;;25.74;100.00
48968;BME280;46511;53.148;8.204;2023-08-17T12:25:39;102058.25;;;25.06;100.00
48968;BME280;46511;53.148;8.204;2023-08-17T12:28:13;102055.66;;;25.59;100.00
48968;BME280;46511;53.148;8.204;2023-08-17T12:30:44;102064.13;;;25.11;100.00
48968;BME280;46511;53.148;8.204;2023-08-17T12:33:16;102048.91;;;24.71;100.00
48968;BME280;46511;53.148;8.204;2023-08-17T12:35:58;102064.03;;;24.37;100.00
48968;BME280;46511;53.148;8.204;2023-08-17T12:38:24;102064.75;;;24.19;100.00
48968;BME280;46511;53.148;8.204;2023-08-17T12:40:51;102065.41;;;24.60;100.00
48968;BME280;46511;53.148;8.204;2023-08-17T12:43:23;102069.31;;;24.48;100.00
48968;BME280;46511;53.148;8.204;2023-08-17T12:45:54;102073.94;;;23.49;100.00
48968;BME280;46511;53.148;8.204;2023-08-17T12:48:26;102074.22;;;22.96;100.00
48968;BME280;46511;53.148;8.204;2023-08-17T12:50:57;102069.69;;;22.76;100.00
48968;BME280;46511;53.148;8.204;2023-08-17T12:53:28;102069.28;;;23.51;100.00
48968;BME280;46511;53.148;8.204;2023-08-17T12:56:00;102067.41;;;23.12;100.00
48968;BME280;46511;53.148;8.204;2023-08-17T12:58:31;102073.94;;;22.99;100.00
48968;BME280;46511;53.148;8.204;2023-08-17T13:01:02;102070.03;;;23.73;100.00
48968;BME280;46511;53.148;8.204;2023-08-17T13:03:34;102062.75;;;23.63;100.00
48968;BME280;46511;53.148;8.204;2023-08-17T13:06:06;102069.78;;;23.35;100.00
48968;BME280;46511;53.148;8.204;2023-08-17T13:08:38;102077.31;;;24.40;100.00
48968;BME280;46511;53.148;8.204;2023-08-17T13:11:10;102070.72;;;24.52;100.00